createdAt,value
2022-11-27T00:01:32.405Z,101682.00
2022-11-27T00:04:00.366Z,101663.00
2022-11-27T00:06:29.546Z,101659.00
2022-11-27T00:08:58.872Z,101641.00
2022-11-27T00:11:28.172Z,101647.00
2022-11-27T00:13:56.500Z,101653.00
2022-11-27T00:16:25.959Z,101646.00
2022-11-27T00:18:54.191Z,101653.00
2022-11-27T00:21:24.812Z,101649.00
2022-11-27T00:23:54.201Z,101652.00
2022-11-27T00:26:22.764Z,101651.00
2022-11-27T00:28:51.101Z,101645.00
2022-11-27T00:31:21.692Z,101653.00
2022-11-27T00:33:49.538Z,101634.00
2022-11-27T00:36:17.764Z,101644.00
2022-11-27T00:38:45.740Z,101642.00
2022-11-27T00:41:20.203Z,101642.00
2022-11-27T00:43:48.278Z,101636.00
2022-11-27T00:46:26.828Z,101644.00
2022-11-27T00:48:57.478Z,101643.00
2022-11-27T00:51:25.896Z,101647.00
2022-11-27T00:53:54.969Z,101634.00
2022-11-27T00:56:28.118Z,101635.00
2022-11-27T00:58:56.317Z,101628.00
2022-11-27T01:01:27.670Z,101628.00
2022-11-27T01:03:57.553Z,101632.00
2022-11-27T01:06:26.262Z,101637.00
2022-11-27T01:08:54.084Z,101635.00
2022-11-27T01:11:31.082Z,101641.00
2022-11-27T01:14:02.249Z,101641.00
2022-11-27T01:16:32.933Z,101628.00
2022-11-27T01:19:01.826Z,101634.00
2022-11-27T01:21:32.499Z,101623.00
2022-11-27T01:24:00.992Z,101616.00
2022-11-27T01:26:29.327Z,101620.00
2022-11-27T01:28:59.914Z,101616.00
2022-11-27T01:31:31.523Z,101615.00
2022-11-27T01:34:02.202Z,101614.00
2022-11-27T01:36:31.151Z,101612.00
2022-11-27T01:38:59.650Z,101615.00
2022-11-27T01:41:30.830Z,101615.00
2022-11-27T01:44:24.602Z,101612.00
2022-11-27T01:47:05.264Z,101613.00
2022-11-27T01:49:34.652Z,101603.00
2022-11-27T01:52:10.283Z,101605.00
2022-11-27T01:55:23.265Z,101592.00
2022-11-27T01:58:11.658Z,101601.00
2022-11-27T02:00:39.854Z,101602.00
2022-11-27T02:03:07.813Z,101594.00
2022-11-27T02:05:35.778Z,101594.00
2022-11-27T02:08:08.534Z,101586.00
2022-11-27T02:11:08.927Z,101586.00
2022-11-27T02:13:55.326Z,101587.00
2022-11-27T02:16:44.331Z,101592.00
2022-11-27T02:19:34.544Z,101577.00
2022-11-27T02:22:15.873Z,101569.00
2022-11-27T02:24:52.944Z,101584.00
2022-11-27T02:27:26.686Z,101568.00
2022-11-27T02:29:57.599Z,101572.00
2022-11-27T02:32:34.437Z,101566.00
2022-11-27T02:35:21.503Z,101569.00
2022-11-27T02:37:59.155Z,101571.00
2022-11-27T02:40:52.319Z,101569.00
2022-11-27T02:43:34.252Z,101567.00
2022-11-27T02:46:02.207Z,101562.00
2022-11-27T02:48:49.485Z,101562.00
2022-11-27T02:51:21.117Z,101568.00
2022-11-27T02:53:58.478Z,101567.00
2022-11-27T02:56:28.390Z,101561.00
2022-11-27T02:58:58.047Z,101560.00
2022-11-27T03:01:31.767Z,101559.00
2022-11-27T03:04:01.239Z,101552.00
2022-11-27T03:06:34.834Z,101549.00
2022-11-27T03:09:14.154Z,101540.00
2022-11-27T03:11:42.191Z,101538.00
2022-11-27T03:14:11.538Z,101531.00
2022-11-27T03:17:09.349Z,101531.00
2022-11-27T03:20:03.864Z,101524.00
2022-11-27T03:22:31.945Z,101521.00
2022-11-27T03:25:00.255Z,101519.00
2022-11-27T03:27:34.930Z,101521.00
2022-11-27T03:30:05.807Z,101525.00
2022-11-27T03:32:34.422Z,101520.00
2022-11-27T03:35:02.394Z,101521.00
2022-11-27T03:37:30.524Z,101518.00
2022-11-27T03:39:58.585Z,101525.00
2022-11-27T03:42:49.042Z,101525.00
2022-11-27T03:45:40.717Z,101527.00
2022-11-27T03:48:36.640Z,101533.00
2022-11-27T03:51:04.453Z,101523.00
2022-11-27T03:53:38.809Z,101510.00
2022-11-27T03:56:10.357Z,101515.00
2022-11-27T03:58:39.332Z,101516.00
2022-11-27T04:01:11.516Z,101509.00
2022-11-27T04:03:39.558Z,101508.00
2022-11-27T04:06:07.477Z,101507.00
2022-11-27T04:08:35.361Z,101521.00
2022-11-27T04:11:03.278Z,101514.00
2022-11-27T04:13:31.101Z,101512.00
2022-11-27T04:16:02.304Z,101516.00
2022-11-27T04:18:30.405Z,101505.00
2022-11-27T04:20:58.712Z,101508.00
2022-11-27T04:23:26.622Z,101495.00
2022-11-27T04:25:54.482Z,101498.00
2022-11-27T04:28:22.419Z,101501.00
2022-11-27T04:30:55.054Z,101501.00
2022-11-27T04:33:23.626Z,101503.00
2022-11-27T04:35:51.976Z,101503.00
2022-11-27T04:38:20.857Z,101495.00
2022-11-27T04:40:48.759Z,101494.00
2022-11-27T04:43:16.580Z,101502.00
2022-11-27T04:45:44.648Z,101494.00
2022-11-27T04:48:12.539Z,101500.00
2022-11-27T04:50:40.743Z,101504.00
2022-11-27T04:53:08.435Z,101499.00
2022-11-27T04:55:36.500Z,101486.00
2022-11-27T04:58:04.750Z,101483.00
2022-11-27T05:00:32.709Z,101481.00
2022-11-27T05:03:00.749Z,101488.00
2022-11-27T05:05:28.762Z,101482.00
2022-11-27T05:07:56.745Z,101494.00
2022-11-27T05:10:24.847Z,101489.00
2022-11-27T05:12:52.716Z,101491.00
2022-11-27T05:15:20.539Z,101472.00
2022-11-27T05:17:48.276Z,101482.00
2022-11-27T05:20:16.161Z,101482.00
2022-11-27T05:22:45.017Z,101485.00
2022-11-27T05:25:12.999Z,101493.00
2022-11-27T05:27:40.744Z,101474.00
2022-11-27T05:30:09.291Z,101478.00
2022-11-27T05:32:37.365Z,101477.00
2022-11-27T05:35:05.435Z,101478.00
2022-11-27T05:37:33.353Z,101470.00
2022-11-27T05:40:01.233Z,101461.00
2022-11-27T05:42:28.940Z,101444.00
2022-11-27T05:44:58.429Z,101449.00
2022-11-27T05:47:26.871Z,101447.00
2022-11-27T05:49:55.012Z,101453.00
2022-11-27T05:52:22.775Z,101452.00
2022-11-27T05:54:50.573Z,101453.00
2022-11-27T05:57:18.262Z,101451.00
2022-11-27T05:59:46.151Z,101445.00
2022-11-27T06:02:20.131Z,101446.00
2022-11-27T06:04:50.680Z,101430.00
2022-11-27T06:07:18.809Z,101426.00
2022-11-27T06:09:46.652Z,101433.00
2022-11-27T06:12:15.103Z,101426.00
2022-11-27T06:14:43.154Z,101422.00
2022-11-27T06:17:11.519Z,101426.00
2022-11-27T06:19:39.248Z,101416.00
2022-11-27T06:22:07.105Z,101410.00
2022-11-27T06:24:35.083Z,101422.00
2022-11-27T06:27:02.976Z,101418.00
2022-11-27T06:29:30.971Z,101410.00
2022-11-27T06:31:58.853Z,101411.00
2022-11-27T06:34:26.647Z,101409.00
2022-11-27T06:36:54.484Z,101406.00
2022-11-27T06:39:22.456Z,101408.00
2022-11-27T06:41:50.221Z,101396.00
2022-11-27T06:44:18.110Z,101393.00
2022-11-27T06:46:45.948Z,101395.00
2022-11-27T06:49:13.732Z,101393.00
2022-11-27T06:51:41.549Z,101390.00
2022-11-27T06:54:09.930Z,101388.00
2022-11-27T06:56:37.876Z,101392.00
2022-11-27T06:59:05.741Z,101392.00
2022-11-27T07:01:34.613Z,101392.00
2022-11-27T07:04:02.524Z,101376.00
2022-11-27T07:06:30.422Z,101383.00
2022-11-27T07:08:58.439Z,101392.00
2022-11-27T07:11:28.629Z,101389.00
2022-11-27T07:13:58.711Z,101391.00
2022-11-27T07:16:27.260Z,101377.00
2022-11-27T07:18:57.866Z,101375.00
2022-11-27T07:21:26.281Z,101378.00
2022-11-27T07:23:54.404Z,101384.00
2022-11-27T07:26:24.356Z,101391.00
2022-11-27T07:28:52.539Z,101381.00
2022-11-27T07:31:26.806Z,101387.00
2022-11-27T07:33:55.118Z,101373.00
2022-11-27T07:36:31.055Z,101370.00
2022-11-27T07:38:58.906Z,101373.00
2022-11-27T07:41:32.124Z,101374.00
2022-11-27T07:44:04.786Z,101372.00
2022-11-27T07:46:32.937Z,101373.00
2022-11-27T07:49:01.169Z,101366.00
2022-11-27T07:51:29.523Z,101367.00
2022-11-27T07:53:57.477Z,101361.00
2022-11-27T07:56:25.695Z,101350.00
2022-11-27T07:58:53.709Z,101345.00
2022-11-27T08:01:22.493Z,101347.00
2022-11-27T08:03:50.384Z,101357.00
2022-11-27T08:06:20.636Z,101346.00
2022-11-27T08:08:49.125Z,101343.00
2022-11-27T08:11:22.772Z,101339.00
2022-11-27T08:13:51.258Z,101337.00
2022-11-27T08:16:19.305Z,101337.00
2022-11-27T08:18:47.121Z,101336.00
2022-11-27T08:21:15.131Z,101331.00
2022-11-27T08:23:43.091Z,101327.00
2022-11-27T08:26:12.372Z,101340.00
2022-11-27T08:28:40.766Z,101330.00
2022-11-27T08:31:11.124Z,101335.00
2022-11-27T08:33:39.281Z,101350.00
2022-11-27T08:36:10.574Z,101347.00
2022-11-27T08:38:40.664Z,101363.00
2022-11-27T08:41:09.278Z,101371.00
2022-11-27T08:43:37.330Z,101363.00
2022-11-27T08:46:06.532Z,101365.00
2022-11-27T08:48:34.672Z,101372.00
2022-11-27T08:51:07.386Z,101363.00
2022-11-27T08:53:37.534Z,101366.00
2022-11-27T08:56:11.580Z,101372.00
2022-11-27T08:58:41.391Z,101369.00
2022-11-27T09:01:18.213Z,101364.00
2022-11-27T09:03:46.627Z,101357.00
2022-11-27T09:06:17.482Z,101360.00
2022-11-27T09:08:45.980Z,101351.00
2022-11-27T09:11:15.602Z,101348.00
2022-11-27T09:13:44.118Z,101359.00
2022-11-27T09:16:14.319Z,101359.00
2022-11-27T09:18:44.033Z,101364.00
2022-11-27T09:21:13.588Z,101366.00
2022-11-27T09:23:41.647Z,101358.00
2022-11-27T09:26:12.199Z,101366.00
2022-11-27T09:28:41.082Z,101350.00
2022-11-27T09:31:10.949Z,101350.00
2022-11-27T09:33:40.029Z,101356.00
2022-11-27T09:36:10.489Z,101347.00
2022-11-27T09:38:39.118Z,101367.00
2022-11-27T09:41:33.962Z,101357.00
2022-11-27T09:44:06.985Z,101342.00
2022-11-27T09:46:40.351Z,101335.00
2022-11-27T09:49:12.298Z,101347.00
2022-11-27T09:51:54.285Z,101342.00
2022-11-27T09:54:24.146Z,101334.00
2022-11-27T09:56:54.258Z,101336.00
2022-11-27T09:59:39.419Z,101330.00
2022-11-27T10:02:18.752Z,101318.00
2022-11-27T10:05:12.319Z,101316.00
2022-11-27T10:08:06.098Z,101308.00
2022-11-27T10:10:45.120Z,101306.00
2022-11-27T10:13:44.606Z,101303.00
2022-11-27T10:16:42.934Z,101314.00
2022-11-27T10:19:46.928Z,101309.00
2022-11-27T10:22:37.547Z,101299.00
2022-11-27T10:25:26.364Z,101300.00
2022-11-27T10:28:07.253Z,101298.00
2022-11-27T10:30:39.713Z,101291.00
2022-11-27T10:33:18.962Z,101288.00
2022-11-27T10:35:49.274Z,101284.00
2022-11-27T10:38:26.934Z,101267.00
2022-11-27T10:41:41.950Z,101269.00
2022-11-27T10:44:25.736Z,101270.00
2022-11-27T10:46:57.646Z,101274.00
2022-11-27T10:49:25.376Z,101275.00
2022-11-27T10:51:53.661Z,101273.00
2022-11-27T10:54:32.129Z,101265.00
2022-11-27T10:57:37.146Z,101275.00
2022-11-27T11:00:28.075Z,101267.00
2022-11-27T11:03:07.438Z,101264.00
2022-11-27T11:06:18.641Z,101268.00
2022-11-27T11:08:26.492Z,101269.00
2022-11-27T11:10:58.652Z,101272.00
2022-11-27T11:13:30.813Z,101261.00
2022-11-27T11:16:04.854Z,101263.00
2022-11-27T11:18:43.925Z,101252.00
2022-11-27T11:21:25.257Z,101239.00
2022-11-27T11:24:06.481Z,101239.00
2022-11-27T11:26:45.716Z,101229.00
2022-11-27T11:29:22.769Z,101229.00
2022-11-27T11:31:50.632Z,101228.00
2022-11-27T11:34:24.667Z,101229.00
2022-11-27T11:37:05.285Z,101222.00
2022-11-27T11:39:40.637Z,101224.00
2022-11-27T11:42:20.056Z,101206.00
2022-11-27T11:44:52.896Z,101205.00
2022-11-27T11:47:24.967Z,101209.00
2022-11-27T11:49:53.332Z,101215.00
2022-11-27T11:52:55.047Z,101212.00
2022-11-27T11:55:43.412Z,101208.00
2022-11-27T11:58:33.222Z,101193.00
2022-11-27T12:01:27.923Z,101193.00
2022-11-27T12:04:17.810Z,101184.00
2022-11-27T12:06:57.548Z,101197.00
2022-11-27T12:09:41.683Z,101189.00
2022-11-27T12:12:40.284Z,101184.00
2022-11-27T12:15:22.976Z,101172.00
2022-11-27T12:18:10.914Z,101172.00
2022-11-27T12:20:56.743Z,101167.00
2022-11-27T12:23:30.398Z,101162.00
2022-11-27T12:26:13.443Z,101158.00
2022-11-27T12:29:32.715Z,101154.00
2022-11-27T12:32:06.350Z,101155.00
2022-11-27T12:34:34.736Z,101152.00
2022-11-27T12:37:21.857Z,101147.00
2022-11-27T12:40:08.122Z,101141.00
2022-11-27T12:42:50.498Z,101127.00
2022-11-27T12:45:33.426Z,101126.00
2022-11-27T12:48:31.412Z,101126.00
2022-11-27T12:51:02.757Z,101118.00
2022-11-27T12:53:50.994Z,101114.00
2022-11-27T12:56:33.814Z,101108.00
2022-11-27T12:59:07.425Z,101106.00
2022-11-27T13:01:44.466Z,101101.00
2022-11-27T13:04:43.796Z,101107.00
2022-11-27T13:07:24.582Z,101104.00
2022-11-27T13:10:04.811Z,101088.00
2022-11-27T13:13:00.235Z,101101.00
2022-11-27T13:15:57.421Z,101091.00
2022-11-27T13:18:38.818Z,101086.00
2022-11-27T13:21:10.252Z,101079.00
2022-11-27T13:23:38.108Z,101074.00
2022-11-27T13:26:11.837Z,101067.00
2022-11-27T13:28:43.707Z,101070.00
2022-11-27T13:31:26.222Z,101059.00
2022-11-27T13:34:02.279Z,101051.00
2022-11-27T13:36:41.247Z,101049.00
2022-11-27T13:39:33.643Z,101042.00
2022-11-27T13:42:12.788Z,101035.00
2022-11-27T13:44:53.809Z,101038.00
2022-11-27T13:47:23.776Z,101040.00
2022-11-27T13:50:15.644Z,101033.00
2022-11-27T13:52:54.980Z,101014.00
2022-11-27T13:55:28.921Z,101017.00
2022-11-27T13:57:58.607Z,101017.00
2022-11-27T14:00:41.191Z,101014.00
2022-11-27T14:03:21.564Z,101006.00
2022-11-27T14:05:49.282Z,101004.00
2022-11-27T14:08:21.981Z,101007.00
2022-11-27T14:10:57.226Z,101003.00
2022-11-27T14:13:54.439Z,101008.00
2022-11-27T14:16:30.272Z,101008.00
2022-11-27T14:19:19.805Z,101001.00
2022-11-27T14:21:47.567Z,100983.00
2022-11-27T14:24:33.514Z,100985.00
2022-11-27T14:27:01.585Z,100985.00
2022-11-27T14:29:32.351Z,100994.00
2022-11-27T14:32:04.411Z,100983.00
2022-11-27T14:34:33.449Z,100980.00
2022-11-27T14:37:01.865Z,100977.00
2022-11-27T14:39:33.449Z,100982.00
2022-11-27T14:42:02.164Z,100975.00
2022-11-27T14:44:30.720Z,100974.00
2022-11-27T14:47:04.138Z,100971.00
2022-11-27T14:49:32.899Z,100973.00
2022-11-27T14:52:06.566Z,100975.00
2022-11-27T14:54:37.503Z,100967.00
2022-11-27T14:57:05.883Z,100974.00
2022-11-27T14:59:34.133Z,100973.00
2022-11-27T15:02:06.686Z,100965.00
2022-11-27T15:04:36.726Z,100961.00
2022-11-27T15:07:29.646Z,100953.00
2022-11-27T15:09:59.006Z,100950.00
2022-11-27T15:12:42.924Z,100947.00
2022-11-27T15:15:23.842Z,100933.00
2022-11-27T15:17:55.801Z,100936.00
2022-11-27T15:20:31.819Z,100936.00
2022-11-27T15:23:00.572Z,100919.00
2022-11-27T15:25:41.478Z,100917.00
2022-11-27T15:28:27.571Z,100920.00
2022-11-27T15:30:56.709Z,100930.00
2022-11-27T15:33:33.070Z,100930.00
2022-11-27T15:36:19.969Z,100923.00
2022-11-27T15:38:51.194Z,100916.00
2022-11-27T15:41:27.625Z,100918.00
2022-11-27T15:43:56.857Z,100911.00
2022-11-27T15:46:32.317Z,100901.00
2022-11-27T15:49:00.380Z,100903.00
2022-11-27T15:51:29.288Z,100900.00
2022-11-27T15:53:56.993Z,100893.00
2022-11-27T15:56:24.899Z,100883.00
2022-11-27T15:58:52.582Z,100887.00
2022-11-27T16:01:20.595Z,100882.00
2022-11-27T16:03:50.479Z,100878.00
2022-11-27T16:06:23.843Z,100875.00
2022-11-27T16:08:59.502Z,100871.00
2022-11-27T16:11:29.592Z,100873.00
2022-11-27T16:13:57.792Z,100876.00
2022-11-27T16:16:26.389Z,100864.00
2022-11-27T16:19:00.113Z,100866.00
2022-11-27T16:21:31.928Z,100867.00
2022-11-27T16:24:01.844Z,100867.00
2022-11-27T16:26:30.467Z,100879.00
2022-11-27T16:28:58.567Z,100869.00
2022-11-27T16:31:26.991Z,100868.00
2022-11-27T16:33:55.090Z,100858.00
2022-11-27T16:36:25.462Z,100860.00
2022-11-27T16:38:54.967Z,100856.00
2022-11-27T16:41:25.028Z,100859.00
2022-11-27T16:43:56.789Z,100861.00
2022-11-27T16:46:28.358Z,100859.00
2022-11-27T16:49:00.980Z,100853.00
2022-11-27T16:51:34.201Z,100851.00
2022-11-27T16:54:04.292Z,100849.00
2022-11-27T16:56:33.437Z,100846.00
2022-11-27T16:59:11.987Z,100847.00
2022-11-27T17:01:41.817Z,100844.00
2022-11-27T17:04:15.081Z,100836.00
2022-11-27T17:06:42.997Z,100832.00
2022-11-27T17:09:11.144Z,100825.00
2022-11-27T17:11:43.730Z,100823.00
2022-11-27T17:14:11.900Z,100827.00
2022-11-27T17:16:41.525Z,100819.00
2022-11-27T17:19:13.379Z,100820.00
2022-11-27T17:21:44.312Z,100803.00
2022-11-27T17:24:15.617Z,100815.00
2022-11-27T17:26:48.489Z,100802.00
2022-11-27T17:29:19.244Z,100807.00
2022-11-27T17:31:47.219Z,100805.00
2022-11-27T17:34:16.121Z,100797.00
2022-11-27T17:36:45.849Z,100797.00
2022-11-27T17:39:15.204Z,100790.00
2022-11-27T17:41:45.349Z,100789.00
2022-11-27T17:44:13.379Z,100790.00
2022-11-27T17:46:41.018Z,100783.00
2022-11-27T17:49:09.475Z,100790.00
2022-11-27T17:51:38.048Z,100779.00
2022-11-27T17:54:08.300Z,100782.00
2022-11-27T17:56:36.359Z,100789.00
2022-11-27T17:59:05.217Z,100785.00
2022-11-27T18:01:34.813Z,100784.00
2022-11-27T18:04:05.636Z,100774.00
2022-11-27T18:06:33.809Z,100763.00
2022-11-27T18:09:02.053Z,100763.00
2022-11-27T18:11:31.881Z,100769.00
2022-11-27T18:14:01.490Z,100768.00
2022-11-27T18:16:36.065Z,100774.00
2022-11-27T18:19:07.533Z,100769.00
2022-11-27T18:21:36.381Z,100764.00
2022-11-27T18:27:09.660Z,100762.00
2022-11-27T18:29:42.739Z,100747.00
2022-11-27T18:32:14.776Z,100741.00
2022-11-27T18:34:42.808Z,100733.00
2022-11-27T18:37:11.255Z,100730.00
2022-11-27T18:39:40.113Z,100756.00
2022-11-27T18:42:08.207Z,100747.00
2022-11-27T18:44:41.183Z,100739.00
2022-11-27T18:47:13.511Z,100736.00
2022-11-27T18:49:42.979Z,100739.00
2022-11-27T18:52:11.391Z,100726.00
2022-11-27T18:54:39.558Z,100722.00
2022-11-27T18:57:08.071Z,100722.00
2022-11-27T18:59:35.916Z,100714.00
2022-11-27T19:02:04.680Z,100706.00
2022-11-27T19:04:34.696Z,100712.00
2022-11-27T19:07:03.005Z,100695.00
2022-11-27T19:09:30.908Z,100705.00
2022-11-27T19:11:59.205Z,100699.00
2022-11-27T19:14:27.392Z,100685.00
2022-11-27T19:16:55.789Z,100695.00
2022-11-27T19:22:13.420Z,100692.00
2022-11-27T19:24:41.354Z,100675.00
2022-11-27T19:27:09.416Z,100676.00
2022-11-27T19:29:37.283Z,100664.00
2022-11-27T19:32:05.235Z,100675.00
2022-11-27T19:34:33.254Z,100659.00
2022-11-27T19:37:01.073Z,100664.00
2022-11-27T19:39:29.129Z,100658.00
2022-11-27T19:41:58.141Z,100659.00
2022-11-27T19:44:26.509Z,100667.00
2022-11-27T19:46:54.767Z,100655.00
2022-11-27T19:49:24.189Z,100661.00
2022-11-27T19:51:52.245Z,100658.00
2022-11-27T19:54:20.877Z,100656.00
2022-11-27T19:56:50.659Z,100651.00
2022-11-27T19:59:25.389Z,100649.00
2022-11-27T20:01:55.034Z,100647.00
2022-11-27T20:04:28.182Z,100651.00
2022-11-27T20:06:56.282Z,100638.00
2022-11-27T20:09:24.795Z,100636.00
2022-11-27T20:11:52.876Z,100622.00
2022-11-27T20:14:20.848Z,100619.00
2022-11-27T20:16:48.957Z,100610.00
2022-11-27T20:19:17.387Z,100614.00
2022-11-27T20:21:45.975Z,100611.00
2022-11-27T20:24:14.395Z,100613.00
2022-11-27T20:26:43.011Z,100614.00
2022-11-27T20:29:14.724Z,100603.00
2022-11-27T20:31:45.244Z,100600.00
2022-11-27T20:34:19.972Z,100594.00
2022-11-27T20:36:48.480Z,100588.00
2022-11-27T20:39:21.378Z,100580.00
2022-11-27T20:41:51.822Z,100579.00
2022-11-27T20:44:19.863Z,100581.00
2022-11-27T20:46:47.950Z,100579.00
2022-11-27T20:49:16.590Z,100580.00
2022-11-27T20:51:46.851Z,100579.00
2022-11-27T20:54:14.967Z,100594.00
2022-11-27T20:56:46.818Z,100595.00
2022-11-27T20:59:14.688Z,100592.00
2022-11-27T21:01:42.808Z,100588.00
2022-11-27T21:04:20.621Z,100592.00
2022-11-27T21:06:49.101Z,100591.00
2022-11-27T21:09:17.064Z,100577.00
2022-11-27T21:11:45.669Z,100576.00
2022-11-27T21:14:15.012Z,100581.00
2022-11-27T21:16:48.765Z,100578.00
2022-11-27T21:19:20.980Z,100575.00
2022-11-27T21:21:51.065Z,100565.00
2022-11-27T21:24:20.285Z,100571.00
2022-11-27T21:26:49.295Z,100567.00
2022-11-27T21:29:17.505Z,100563.00
2022-11-27T21:31:47.362Z,100567.00
2022-11-27T21:34:16.791Z,100551.00
2022-11-27T21:36:45.474Z,100554.00
2022-11-27T21:39:20.653Z,100550.00
2022-11-27T21:41:50.662Z,100552.00
2022-11-27T21:44:20.302Z,100553.00
2022-11-27T21:46:48.678Z,100550.00
2022-11-27T21:49:20.013Z,100538.00
2022-11-27T21:51:54.412Z,100555.00
2022-11-27T21:54:29.532Z,100537.00
2022-11-27T21:56:57.586Z,100533.00
2022-11-27T21:59:27.835Z,100527.00
2022-11-27T22:01:57.489Z,100516.00
2022-11-27T22:04:25.878Z,100526.00
2022-11-27T22:06:56.637Z,100523.00
2022-11-27T22:09:24.466Z,100512.00
2022-11-27T22:11:53.429Z,100516.00
2022-11-27T22:14:21.480Z,100505.00
2022-11-27T22:16:49.354Z,100504.00
2022-11-27T22:19:17.864Z,100509.00
2022-11-27T22:21:46.215Z,100512.00
2022-11-27T22:24:18.983Z,100519.00
2022-11-27T22:26:51.517Z,100508.00
2022-11-27T22:29:20.504Z,100523.00
2022-11-27T22:31:48.438Z,100511.00
2022-11-27T22:34:17.331Z,100504.00
2022-11-27T22:36:46.307Z,100493.00
2022-11-27T22:39:14.505Z,100503.00
2022-11-27T22:41:42.902Z,100484.00
2022-11-27T22:44:16.771Z,100499.00
2022-11-27T22:46:45.359Z,100495.00
2022-11-27T22:49:15.027Z,100494.00
2022-11-27T22:51:43.690Z,100494.00
2022-11-27T22:54:13.936Z,100484.00
2022-11-27T22:56:42.651Z,100487.00
2022-11-27T22:59:31.689Z,100481.00
2022-11-27T23:01:59.912Z,100490.00
2022-11-27T23:04:28.184Z,100487.00
2022-11-27T23:06:56.256Z,100471.00
2022-11-27T23:09:24.502Z,100479.00
2022-11-27T23:11:53.169Z,100481.00
2022-11-27T23:14:21.078Z,100482.00
2022-11-27T23:16:49.151Z,100480.00
2022-11-27T23:19:17.310Z,100486.00
2022-11-27T23:21:45.170Z,100470.00
2022-11-27T23:24:15.463Z,100471.00
2022-11-27T23:26:44.230Z,100471.00
2022-11-27T23:29:12.303Z,100467.00
2022-11-27T23:31:40.327Z,100452.00
2022-11-27T23:34:13.694Z,100470.00
2022-11-27T23:36:41.587Z,100452.00
2022-11-27T23:39:11.087Z,100430.00
2022-11-27T23:41:40.725Z,100445.00
2022-11-27T23:44:08.856Z,100441.00
2022-11-27T23:46:36.750Z,100434.00
2022-11-27T23:49:04.796Z,100452.00
2022-11-27T23:51:33.549Z,100454.00
2022-11-27T23:54:02.109Z,100456.00
2022-11-27T23:56:32.188Z,100453.00
2022-11-27T23:59:00.811Z,100456.00
